Time;durP1;ratioP1;P1;durP2;ratioP2;P2;SDS_P1;SDS_P2;PMS_P1;PMS_P2;Temp;Humidity;BMP_temperature;BMP_pressure;BME280_temperature;BME280_humidity;BME280_pressure;Samples;Min_cycle;Max_cycle;Signal;HPM_P1;HPM_P2
2022/04/18 00:00:43;;;;;;;22.75;14.20;;;5.30;67.40;;;;;;5034325;28;20036;-17
2022/04/18 00:03:08;;;;;;;24.23;14.52;;;5.30;67.30;;;;;;5034191;28;20029;-17
2022/04/18 00:05:34;;;;;;;21.50;13.48;;;5.30;66.30;;;;;;5033683;28;20524;-15
2022/04/18 00:08:02;;;;;;;28.70;15.43;;;5.30;66.50;;;;;;5032700;28;20087;-16
2022/04/18 00:10:29;;;;;;;23.63;15.02;;;5.30;66.70;;;;;;5033564;28;20033;-17
2022/04/18 00:12:55;;;;;;;17.45;10.40;;;5.20;67.40;;;;;;5034080;28;20048;-17
2022/04/18 00:15:20;;;;;;;18.48;11.93;;;5.20;67.40;;;;;;5032509;28;20381;-16
2022/04/18 00:17:46;;;;;;;17.05;10.93;;;5.10;67.60;;;;;;5034216;28;20481;-17
2022/04/18 00:20:12;;;;;;;20.33;11.35;;;5.20;66.80;;;;;;5034122;28;20057;-16
2022/04/18 00:22:38;;;;;;;15.30;10.23;;;5.10;67.30;;;;;;5033465;28;20056;-14
2022/04/18 00:25:05;;;;;;;21.33;11.70;;;5.10;67.10;;;;;;5033556;28;20033;-16
2022/04/18 00:27:30;;;;;;;18.60;11.68;;;5.10;67.80;;;;;;5033597;28;20029;-16
2022/04/18 00:29:56;;;;;;;17.70;9.68;;;5.10;66.80;;;;;;5033896;28;20029;-14
2022/04/18 00:32:22;;;;;;;18.13;11.15;;;5.00;66.70;;;;;;5033470;28;20056;-17
2022/04/18 00:34:48;;;;;;;15.85;10.90;;;5.00;67.20;;;;;;5033435;28;20382;-15
2022/04/18 00:37:14;;;;;;;15.02;10.18;;;4.90;67.10;;;;;;5033589;28;20029;-15
2022/04/18 00:39:40;;;;;;;18.25;12.25;;;5.00;66.90;;;;;;5033537;28;20018;-13
2022/04/18 00:42:06;;;;;;;19.42;11.52;;;5.00;67.50;;;;;;5033307;28;20032;-15
2022/04/18 00:44:32;;;;;;;17.30;10.13;;;4.90;67.20;;;;;;5033641;28;20036;-16
2022/04/18 00:46:58;;;;;;;17.42;10.95;;;4.90;67.00;;;;;;5033411;28;20021;-15
2022/04/18 00:49:24;;;;;;;18.00;11.23;;;4.90;67.10;;;;;;5033171;28;20033;-16
2022/04/18 00:51:50;;;;;;;20.65;12.18;;;4.90;67.10;;;;;;5033484;28;20037;-16
2022/04/18 00:54:17;;;;;;;18.70;11.90;;;4.90;67.20;;;;;;5031786;28;20026;-16
2022/04/18 00:56:44;;;;;;;15.50;10.38;;;4.90;67.30;;;;;;5033099;28;20102;-17
2022/04/18 00:59:11;;;;;;;15.60;11.07;;;4.90;67.10;;;;;;5033035;28;20037;-15
2022/04/18 01:01:38;;;;;;;19.33;11.18;;;4.90;67.30;;;;;;5033651;28;20025;-15
2022/04/18 01:04:05;;;;;;;16.25;10.77;;;4.90;67.50;;;;;;5033071;28;20029;-16
2022/04/18 01:06:32;;;;;;;14.95;9.95;;;4.90;67.60;;;;;;5032535;28;20053;-15
2022/04/18 01:08:59;;;;;;;16.38;10.05;;;4.90;68.30;;;;;;5032955;28;20385;-16
2022/04/18 01:11:26;;;;;;;18.08;11.25;;;4.80;67.90;;;;;;5033258;28;20041;-15
2022/04/18 01:13:51;;;;;;;17.58;12.25;;;4.80;67.50;;;;;;5033573;28;20029;-13
2022/04/18 01:16:18;;;;;;;18.27;10.70;;;4.80;67.70;;;;;;5032974;28;20565;-16
2022/04/18 01:18:45;;;;;;;17.85;10.40;;;4.70;68.40;;;;;;5032925;28;20104;-14
2022/04/18 01:21:11;;;;;;;20.08;12.20;;;4.60;68.00;;;;;;5033192;28;20049;-14
2022/04/18 01:23:37;;;;;;;17.98;11.02;;;4.60;70.60;;;;;;5033201;28;20065;-15
2022/04/18 01:28:58;;;;;;;21.88;11.52;;;4.50;68.70;;;;;;5033208;28;20033;-15
2022/04/18 01:31:33;;;;;;;28.70;14.75;;;4.50;69.10;;;;;;5033006;28;20038;-17
2022/04/18 01:34:00;;;;;;;28.77;14.38;;;4.50;69.40;;;;;;5033184;28;20076;-14
2022/04/18 01:36:27;;;;;;;24.75;13.27;;;4.50;69.10;;;;;;5032923;28;20114;-16
2022/04/18 01:38:53;;;;;;;32.00;18.17;;;4.40;69.40;;;;;;5032724;28;20032;-16
2022/04/18 01:41:19;;;;;;;33.05;15.73;;;4.40;69.90;;;;;;5033025;28;20401;-16
2022/04/18 01:43:46;;;;;;;35.17;17.08;;;4.30;69.90;;;;;;5032695;28;20470;-15
2022/04/18 01:46:13;;;;;;;27.35;14.20;;;4.20;69.80;;;;;;5032980;28;20456;-15
2022/04/18 01:48:39;;;;;;;32.67;16.25;;;4.20;69.90;;;;;;5033244;28;20112;-16
2022/04/18 01:51:05;;;;;;;24.10;12.77;;;4.10;70.40;;;;;;5032898;28;20120;-15
2022/04/18 01:53:31;;;;;;;24.23;13.23;;;4.10;69.40;;;;;;5032955;28;20366;-14
2022/04/18 01:55:57;;;;;;;24.75;13.43;;;4.10;70.10;;;;;;5032609;28;20552;-15
2022/04/18 01:58:24;;;;;;;25.67;12.68;;;4.10;70.50;;;;;;5032381;28;20113;-15
2022/04/18 02:00:49;;;;;;;25.50;13.35;;;4.00;70.60;;;;;;5032882;28;20056;-15
2022/04/18 02:03:15;;;;;;;22.88;12.55;;;3.90;71.00;;;;;;5032457;28;20116;-14
2022/04/18 02:05:43;;;;;;;20.65;11.82;;;3.90;70.80;;;;;;5032315;28;20060;-15
2022/04/18 02:08:10;;;;;;;24.77;13.18;;;3.90;70.40;;;;;;5032804;28;20072;-13
2022/04/18 02:10:36;;;;;;;26.70;13.45;;;3.80;70.20;;;;;;5031025;28;20030;-17
2022/04/18 02:13:03;;;;;;;31.02;14.32;;;3.70;70.20;;;;;;5035503;28;20037;-14
2022/04/18 02:15:28;;;;;;;30.85;15.40;;;3.80;70.40;;;;;;5036329;28;20025;-15
2022/04/18 02:17:54;;;;;;;21.25;12.32;;;3.80;70.80;;;;;;5036226;28;20519;-15
2022/04/18 02:20:20;;;;;;;30.52;13.23;;;3.80;71.40;;;;;;5036048;28;20025;-15
2022/04/18 02:22:46;;;;;;;25.95;13.07;;;3.70;71.00;;;;;;5035906;28;20061;-14
2022/04/18 02:25:12;;;;;;;23.52;12.25;;;3.80;71.00;;;;;;5035795;28;20072;-14
2022/04/18 02:27:38;;;;;;;21.77;11.70;;;3.80;70.80;;;;;;5036116;28;20041;-15
2022/04/18 02:30:06;;;;;;;22.95;11.93;;;3.70;70.80;;;;;;5035836;28;20401;-17
2022/04/18 02:32:50;;;;;;;15.70;9.25;;;3.70;70.60;;;;;;5035410;28;20044;-15
2022/04/18 02:35:17;;;;;;;;;;;3.70;70.90;;;;;;5036120;28;20021;-14
2022/04/18 02:37:43;;;;;;;24.92;11.43;;;3.70;71.20;;;;;;5035611;28;19915;-17
2022/04/18 02:40:10;;;;;;;17.45;9.75;;;3.60;70.60;;;;;;5035945;28;20108;-13
2022/04/18 02:42:36;;;;;;;15.50;9.13;;;3.60;70.50;;;;;;5035637;28;20384;-14
2022/04/18 02:45:01;;;;;;;16.25;9.32;;;3.60;70.30;;;;;;5035765;28;20557;-13
2022/04/18 02:47:27;;;;;;;18.45;10.20;;;3.60;70.90;;;;;;5035307;28;20075;-13
2022/04/18 02:49:54;;;;;;;17.52;10.70;;;3.60;71.30;;;;;;5035271;28;20030;-13
2022/04/18 02:52:20;;;;;;;16.30;9.77;;;3.60;71.40;;;;;;5035417;28;20032;-15
2022/04/18 02:54:46;;;;;;;14.35;8.32;;;3.60;71.30;;;;;;5035572;28;20025;-15
2022/04/18 02:57:12;;;;;;;15.07;10.02;;;3.60;70.90;;;;;;5035238;28;20394;-14
2022/04/18 02:59:39;;;;;;;18.20;9.43;;;3.50;70.70;;;;;;5035490;28;20029;-14
2022/04/18 03:02:05;;;;;;;14.38;8.00;;;3.50;70.40;;;;;;5035056;28;20029;-14
2022/04/18 03:04:31;;;;;;;16.15;8.93;;;3.50;70.70;;;;;;5035015;28;20022;-14
2022/04/18 03:06:58;;;;;;;14.43;9.63;;;3.50;71.00;;;;;;5034831;28;20076;-15
2022/04/18 03:09:27;;;;;;;14.50;8.05;;;3.50;71.10;;;;;;5035234;28;20034;-14
2022/04/18 03:11:54;;;;;;;13.40;8.43;;;3.50;71.10;;;;;;5034930;28;20504;-16
2022/04/18 03:14:19;;;;;;;11.13;7.47;;;3.40;70.90;;;;;;5035125;28;20079;-14
2022/04/18 03:16:47;;;;;;;13.65;7.45;;;3.40;71.30;;;;;;5034705;28;20030;-14
2022/04/18 03:19:12;;;;;;;16.45;8.10;;;3.30;71.40;;;;;;5034822;28;20025;-13
2022/04/18 03:21:38;;;;;;;12.80;8.00;;;3.30;71.60;;;;;;5034782;28;20036;-13
2022/04/18 03:24:05;;;;;;;19.55;10.95;;;3.30;72.20;;;;;;5034545;28;20098;-12
2022/04/18 03:26:30;;;;;;;14.93;9.27;;;3.30;73.00;;;;;;5034871;28;20143;-15
2022/04/18 03:28:56;;;;;;;15.45;7.85;;;3.30;72.30;;;;;;5034565;28;20052;-13
2022/04/18 03:31:22;;;;;;;14.07;8.80;;;3.30;71.90;;;;;;5034663;28;20026;-15
2022/04/18 03:33:48;;;;;;;14.23;7.55;;;3.20;71.60;;;;;;5034944;28;20048;-16
2022/04/18 03:41:42;;;;;;;12.13;7.68;;;3.20;71.00;;;;;;5035103;28;20542;-14
2022/04/18 03:44:09;;;;;;;13.55;8.65;;;3.20;71.70;;;;;;5034665;28;20029;-15
2022/04/18 03:46:35;;;;;;;18.20;8.88;;;3.10;72.40;;;;;;5034029;28;20030;-15
2022/04/18 03:49:01;;;;;;;15.80;9.70;;;3.10;72.60;;;;;;5034596;28;20032;-15
2022/04/18 03:51:27;;;;;;;10.15;6.95;;;3.10;72.10;;;;;;5034452;28;20029;-15
2022/04/18 03:53:53;;;;;;;14.90;9.65;;;3.10;71.70;;;;;;5034423;28;20040;-16
2022/04/18 03:56:19;;;;;;;19.92;10.80;;;3.00;73.00;;;;;;5034062;28;20462;-14
2022/04/18 03:58:44;;;;;;;12.07;7.68;;;3.10;73.10;;;;;;5034074;28;20112;-15
2022/04/18 04:01:10;;;;;;;14.82;8.52;;;3.00;72.30;;;;;;5034010;28;20036;-15
2022/04/18 04:03:36;;;;;;;16.63;9.10;;;3.00;71.60;;;;;;5032742;28;20021;-15
2022/04/18 04:06:02;;;;;;;15.18;8.18;;;3.00;72.00;;;;;;5033806;28;20049;-14
2022/04/18 04:08:29;;;;;;;16.35;8.80;;;3.00;72.60;;;;;;5032473;28;20036;-14
2022/04/18 04:10:54;;;;;;;12.43;7.63;;;3.10;72.00;;;;;;5033794;28;20061;-14
2022/04/18 04:13:20;;;;;;;17.90;9.15;;;3.10;72.10;;;;;;5032613;28;20066;-14
2022/04/18 04:15:46;;;;;;;13.07;8.55;;;3.10;72.40;;;;;;5034082;28;20025;-15
2022/04/18 04:18:12;;;;;;;13.48;7.10;;;3.10;72.90;;;;;;5032401;28;20025;-16
2022/04/18 04:20:38;;;;;;;12.27;7.43;;;3.00;73.20;;;;;;5034003;28;20018;-14
2022/04/18 04:23:04;;;;;;;11.15;7.03;;;3.00;72.10;;;;;;5034021;28;20479;-15
2022/04/18 04:25:30;;;;;;;12.25;6.43;;;3.00;72.20;;;;;;5032509;28;20021;-15
2022/04/18 04:27:56;;;;;;;14.05;7.20;;;2.90;72.20;;;;;;5033610;28;20072;-15
2022/04/18 04:30:22;;;;;;;12.88;8.10;;;2.90;72.00;;;;;;5033520;28;20068;-16
2022/04/18 04:32:50;;;;;;;12.80;7.68;;;2.90;73.50;;;;;;5033726;28;20034;-14
2022/04/18 04:35:17;;;;;;;11.98;7.45;;;2.90;73.50;;;;;;5032859;28;20071;-15
2022/04/18 04:37:43;;;;;;;14.13;7.78;;;3.00;72.20;;;;;;5034011;28;20025;-15
2022/04/18 04:40:11;;;;;;;13.05;7.85;;;3.00;72.60;;;;;;5033299;28;20021;-15
2022/04/18 04:42:38;;;;;;;12.15;7.78;;;3.10;72.70;;;;;;5033611;28;20032;-11
2022/04/18 04:45:05;;;;;;;12.82;7.20;;;3.10;73.10;;;;;;5033386;28;20025;-14
2022/04/18 04:47:31;;;;;;;10.13;6.32;;;3.20;73.00;;;;;;5033194;28;20112;-12
2022/04/18 04:49:57;;;;;;;11.60;7.43;;;3.20;73.20;;;;;;5033105;28;20176;-16
2022/04/18 04:52:23;;;;;;;10.80;6.53;;;3.30;73.80;;;;;;5031769;28;20037;-14
2022/04/18 04:54:49;;;;;;;14.90;8.70;;;3.30;74.10;;;;;;5033182;28;20497;-13
2022/04/18 04:57:15;;;;;;;15.35;9.70;;;3.40;74.20;;;;;;5033466;28;20036;-12
2022/04/18 04:59:41;;;;;;;11.98;7.97;;;3.50;74.40;;;;;;5033156;28;20022;-14
2022/04/18 05:02:07;;;;;;;14.25;7.80;;;3.70;74.50;;;;;;5033006;28;20036;-14
2022/04/18 05:04:33;;;;;;;13.75;7.95;;;3.90;75.40;;;;;;5033216;28;20041;-14
2022/04/18 05:06:59;;;;;;;13.60;8.40;;;4.10;76.10;;;;;;5032810;28;20386;-15
2022/04/18 05:09:25;;;;;;;14.02;8.75;;;4.40;74.00;;;;;;5032999;28;20112;-13
2022/04/18 05:11:52;;;;;;;14.30;8.88;;;4.70;74.80;;;;;;5033012;28;20036;-15
2022/04/18 05:14:19;;;;;;;12.93;8.27;;;5.10;73.80;;;;;;5032754;28;20030;-14
2022/04/18 05:16:45;;;;;;;14.55;7.85;;;5.50;72.40;;;;;;5033350;28;20371;-15
2022/04/18 05:19:11;;;;;;;15.38;8.93;;;5.90;72.10;;;;;;5033314;28;20029;-13
2022/04/18 05:21:36;;;;;;;16.05;9.10;;;6.20;71.30;;;;;;5033112;28;20476;-15
2022/04/18 05:24:03;;;;;;;16.15;10.43;;;6.50;70.70;;;;;;5033141;28;20025;-12
2022/04/18 05:26:29;;;;;;;17.23;11.10;;;6.90;70.30;;;;;;5032858;28;20373;-14
2022/04/18 05:28:55;;;;;;;15.55;8.90;;;7.40;69.70;;;;;;5032823;28;20033;-14
2022/04/18 05:31:21;;;;;;;13.63;8.35;;;7.60;69.10;;;;;;5032778;28;20076;-14
2022/04/18 05:33:46;;;;;;;17.15;7.85;;;7.90;68.70;;;;;;5032759;28;20029;-12
2022/04/18 05:36:12;;;;;;;15.85;9.15;;;8.30;68.10;;;;;;5032930;28;20033;-14
2022/04/18 05:38:39;;;;;;;15.15;7.70;;;8.50;67.80;;;;;;5032820;28;20026;-16
2022/04/18 05:41:05;;;;;;;13.38;7.88;;;8.80;67.40;;;;;;5033032;28;20025;-15
2022/04/18 05:43:31;;;;;;;12.13;7.80;;;9.00;67.00;;;;;;5031924;28;20488;-15
2022/04/18 05:45:56;;;;;;;12.32;7.95;;;9.30;66.00;;;;;;5034874;28;20026;-14
2022/04/18 05:48:22;;;;;;;13.52;9.20;;;9.40;65.70;;;;;;5036233;28;20034;-15
2022/04/18 05:50:48;;;;;;;11.10;7.80;;;9.50;65.70;;;;;;5036400;28;20038;-14
2022/04/18 05:53:15;;;;;;;12.35;6.75;;;9.60;65.70;;;;;;5036431;28;20117;-15
2022/04/18 05:55:41;;;;;;;14.73;7.68;;;9.70;66.00;;;;;;5036725;28;20060;-15
2022/04/18 05:58:08;;;;;;;11.55;7.00;;;9.90;66.30;;;;;;5036340;28;20043;-15
2022/04/18 06:00:37;;;;;;;15.05;8.70;;;10.20;66.20;;;;;;5037135;28;20413;-15
2022/04/18 06:03:03;;;;;;;13.32;7.72;;;10.40;65.20;;;;;;5036181;28;20477;-16
2022/04/18 06:05:29;;;;;;;12.07;7.45;;;10.50;65.50;;;;;;5036074;28;20084;-14
2022/04/18 06:07:55;;;;;;;11.07;6.95;;;10.70;65.40;;;;;;5036534;28;20033;-15
2022/04/18 06:10:21;;;;;;;8.68;5.97;;;10.90;65.20;;;;;;5036284;28;20033;-15
2022/04/18 06:12:47;;;;;;;11.43;6.05;;;11.10;64.20;;;;;;5036079;28;20037;-13
2022/04/18 06:15:13;;;;;;;11.10;6.32;;;11.40;63.70;;;;;;5036350;28;20095;-16
2022/04/18 06:17:39;;;;;;;10.80;6.57;;;11.70;62.90;;;;;;5035897;28;20394;-13
2022/04/18 06:20:06;;;;;;;14.10;6.72;;;11.90;61.90;;;;;;5035830;28;20030;-14
2022/04/18 06:22:32;;;;;;;10.65;7.03;;;12.10;61.60;;;;;;5035655;28;20037;-15
2022/04/18 06:24:57;;;;;;;11.25;5.82;;;12.40;60.80;;;;;;5036202;28;20021;-14
2022/04/18 06:27:23;;;;;;;14.48;7.80;;;12.60;60.80;;;;;;5035826;28;20413;-15
2022/04/18 06:29:49;;;;;;;12.73;7.53;;;12.90;59.70;;;;;;5035746;28;20044;-14
2022/04/18 06:32:15;;;;;;;11.10;7.40;;;13.30;59.60;;;;;;5035436;28;20033;-14
2022/04/18 06:34:41;;;;;;;10.75;7.63;;;13.60;58.80;;;;;;5035993;28;20037;-14
2022/04/18 06:37:08;;;;;;;9.20;7.10;;;14.00;58.20;;;;;;5035968;28;20370;-14
2022/04/18 06:39:34;;;;;;;9.70;7.15;;;14.40;57.70;;;;;;5035882;28;20034;-13
2022/04/18 06:42:00;;;;;;;11.10;6.88;;;14.90;57.00;;;;;;5035550;28;20477;-15
2022/04/18 06:44:26;;;;;;;11.05;7.13;;;15.30;56.10;;;;;;5035237;28;20116;-14
2022/04/18 06:46:51;;;;;;;13.27;7.30;;;15.90;55.30;;;;;;5035418;28;20022;-14
2022/04/18 06:49:17;;;;;;;12.98;7.90;;;16.30;54.30;;;;;;5035347;28;20029;-16
2022/04/18 06:51:43;;;;;;;13.23;7.20;;;16.80;53.40;;;;;;5035432;28;20087;-15
2022/04/18 06:54:09;;;;;;;10.80;6.40;;;17.20;52.40;;;;;;5035464;28;20056;-14
2022/04/18 06:59:18;;;;;;;;;;;17.80;49.70;;;;;;5035827;28;20436;-14
2022/04/18 07:01:44;;;;;;;10.43;6.65;;;18.00;49.00;;;;;;5033924;28;20346;-14
2022/04/18 07:04:11;;;;;;;10.60;6.82;;;18.30;48.10;;;;;;5035434;28;20109;-14
2022/04/18 07:06:37;;;;;;;9.00;5.80;;;18.50;47.20;;;;;;5035095;28;20045;-13
2022/04/18 07:09:03;;;;;;;9.27;4.18;;;18.80;46.50;;;;;;5035487;28;20401;-15
2022/04/18 07:11:29;;;;;;;6.70;4.22;;;19.00;42.00;;;;;;5035133;28;20037;-14
2022/04/18 07:13:54;;;;;;;7.82;4.68;;;19.30;41.00;;;;;;5035227;28;20547;-14
2022/04/18 07:16:20;;;;;;;7.88;4.50;;;19.40;39.90;;;;;;5035125;28;20029;-15
2022/04/18 07:18:46;;;;;;;6.95;4.07;;;19.50;39.40;;;;;;5034770;28;20025;-15
2022/04/18 07:21:12;;;;;;;6.15;4.18;;;19.50;39.10;;;;;;5034798;28;20021;-15
2022/04/18 07:23:38;;;;;;;7.63;4.75;;;19.50;37.80;;;;;;5035156;28;20029;-14
2022/04/18 07:26:03;;;;;;;8.82;4.78;;;19.50;35.70;;;;;;5033691;28;20053;-16
2022/04/18 07:28:29;;;;;;;6.82;4.78;;;19.70;35.70;;;;;;5034776;28;20029;-15
2022/04/18 07:30:55;;;;;;;8.38;4.22;;;19.80;34.90;;;;;;5034838;28;20026;-14
2022/04/18 07:33:21;;;;;;;4.82;3.80;;;19.90;35.40;;;;;;5034731;28;20412;-14
2022/04/18 07:35:47;;;;;;;6.72;3.92;;;19.90;35.40;;;;;;5034551;28;20035;-15
2022/04/18 07:41:04;;;;;;;7.65;4.38;;;19.90;34.50;;;;;;5035060;28;20156;-15
2022/04/18 07:43:34;;;;;;;6.43;4.43;;;19.90;34.40;;;;;;5034748;28;20044;-15
2022/04/18 07:46:01;;;;;;;7.38;4.50;;;19.90;33.50;;;;;;5034545;28;20405;-14
2022/04/18 07:48:27;;;;;;;8.52;4.50;;;19.80;32.50;;;;;;5034059;28;20025;-14
2022/04/18 07:53:37;;;;;;;7.45;4.68;;;19.60;33.00;;;;;;5034582;28;20052;-15
2022/04/18 07:56:03;;;;;;;8.75;4.68;;;19.60;33.50;;;;;;5032888;28;20393;-15
2022/04/18 07:58:29;;;;;;;7.45;4.15;;;19.50;33.80;;;;;;5033914;28;20049;-14
2022/04/18 08:00:55;;;;;;;7.00;4.10;;;19.40;33.50;;;;;;5034325;28;20021;-14
2022/04/18 08:03:20;;;;;;;7.45;4.45;;;19.50;33.20;;;;;;5034181;28;20025;-15
2022/04/18 08:05:46;;;;;;;9.85;4.20;;;19.50;33.00;;;;;;5033706;28;20049;-14
2022/04/18 08:08:12;;;;;;;6.63;4.32;;;19.40;33.30;;;;;;5034223;28;20029;-14
2022/04/18 08:10:38;;;;;;;7.45;4.50;;;19.30;33.50;;;;;;5032926;28;20041;-14
2022/04/18 08:13:04;;;;;;;7.50;3.95;;;19.30;33.20;;;;;;5032669;28;20079;-14
2022/04/18 08:15:32;;;;;;;4.40;3.45;;;19.40;33.60;;;;;;5032498;28;20025;-15
2022/04/18 08:17:58;;;;;;;6.15;4.05;;;19.50;33.20;;;;;;5033963;28;20045;-14
2022/04/18 08:20:24;;;;;;;8.75;4.20;;;19.60;33.60;;;;;;5033469;28;20068;-14
2022/04/18 08:22:50;;;;;;;9.43;5.00;;;19.70;33.60;;;;;;5033918;28;20037;-15
2022/04/18 08:25:16;;;;;;;8.55;4.80;;;19.70;33.60;;;;;;5033935;28;20148;-14
2022/04/18 08:27:42;;;;;;;10.95;4.97;;;19.50;33.50;;;;;;5033870;28;20432;-14
2022/04/18 08:30:08;;;;;;;6.75;4.47;;;19.30;33.80;;;;;;5033524;28;20116;-14
2022/04/18 08:32:39;;;;;;;10.38;4.95;;;18.90;34.20;;;;;;5033302;28;20033;-14
2022/04/18 08:35:06;;;;;;;9.52;4.68;;;18.80;34.70;;;;;;5033768;28;20038;-14
2022/04/18 08:37:36;;;;;;;5.97;4.35;;;18.60;34.40;;;;;;5033728;28;20473;-14
2022/04/18 08:40:05;;;;;;;9.25;5.00;;;18.40;35.10;;;;;;5033724;28;20034;-14
2022/04/18 08:42:34;;;;;;;7.25;4.38;;;18.50;35.20;;;;;;5031977;28;20461;-14
2022/04/18 08:45:12;;;;;;;7.65;4.38;;;18.70;33.40;;;;;;5033643;28;20104;-16
2022/04/18 08:53:12;;;;;;;7.43;4.03;;;19.40;33.60;;;;;;5033907;28;20080;-14
2022/04/18 08:55:40;;;;;;;7.15;4.90;;;19.70;33.50;;;;;;5033787;28;20018;-14
2022/04/18 08:58:06;;;;;;;7.45;4.40;;;19.90;33.60;;;;;;5033441;28;20095;-15
2022/04/18 09:00:32;;;;;;;7.10;4.10;;;20.00;33.50;;;;;;5033287;28;20022;-15
2022/04/18 09:02:58;;;;;;;6.50;4.65;;;20.10;32.70;;;;;;5031816;28;20064;-15
2022/04/18 09:05:24;;;;;;;6.50;3.95;;;20.20;32.60;;;;;;5033503;28;20042;-13
2022/04/18 09:08:05;;;;;;;7.93;5.32;;;20.30;32.30;;;;;;5033450;28;20034;-14
2022/04/18 09:10:33;;;;;;;10.75;6.00;;;20.40;32.50;;;;;;5033134;28;20034;-15
2022/04/18 09:13:10;;;;;;;9.63;4.95;;;20.60;32.40;;;;;;5033021;28;20409;-13
2022/04/18 09:15:39;;;;;;;6.72;4.28;;;20.60;31.50;;;;;;5033684;28;20017;-13
2022/04/18 09:18:17;;;;;;;7.07;4.07;;;20.50;32.30;;;;;;5032872;28;20481;-14
2022/04/18 09:20:48;;;;;;;8.93;4.93;;;20.40;32.60;;;;;;5034249;28;20449;-14
2022/04/18 09:23:34;;;;;;;8.40;4.68;;;20.50;32.80;;;;;;5037337;28;20099;-14
2022/04/18 09:26:03;;;;;;;9.63;4.53;;;20.50;32.10;;;;;;5037017;28;20021;-14
2022/04/18 09:28:31;;;;;;;8.43;4.38;;;20.50;32.20;;;;;;5036726;28;20401;-14
2022/04/18 09:31:05;;;;;;;8.38;4.28;;;20.60;31.70;;;;;;5036808;28;20025;-14
2022/04/18 09:33:33;;;;;;;6.63;4.28;;;20.50;31.80;;;;;;5037100;28;20131;-14
2022/04/18 09:36:15;;;;;;;8.70;4.80;;;20.40;31.90;;;;;;5036772;28;20061;-14
2022/04/18 09:38:47;;;;;;;9.32;4.90;;;20.50;31.70;;;;;;5036751;28;20446;-14
2022/04/18 09:41:15;;;;;;;8.40;4.47;;;20.60;31.50;;;;;;5036736;28;20505;-14
2022/04/18 09:43:46;;;;;;;7.38;4.57;;;20.70;32.20;;;;;;5036994;28;20025;-14
2022/04/18 09:46:14;;;;;;;10.40;4.65;;;20.90;31.00;;;;;;5036753;28;20028;-15
2022/04/18 09:48:42;;;;;;;10.10;4.32;;;20.70;31.30;;;;;;5037136;28;20033;-14
2022/04/18 09:51:24;;;;;;;8.65;4.80;;;20.80;31.90;;;;;;5036482;28;20506;-14
2022/04/18 09:53:54;;;;;;;8.80;4.45;;;20.70;32.00;;;;;;5036662;28;20029;-15
2022/04/18 09:56:22;;;;;;;9.05;4.63;;;20.40;31.80;;;;;;5036474;28;20374;-14
2022/04/18 09:58:49;;;;;;;6.13;4.57;;;20.20;32.60;;;;;;5036617;28;20018;-15
2022/04/18 10:01:16;;;;;;;9.10;5.03;;;20.00;33.10;;;;;;5036603;28;20072;-14
2022/04/18 10:03:44;;;;;;;9.02;5.38;;;20.00;33.20;;;;;;5036772;28;20033;-15
2022/04/18 10:06:11;;;;;;;8.90;5.35;;;20.40;32.40;;;;;;5036085;28;20509;-15
2022/04/18 10:08:38;;;;;;;8.73;4.82;;;20.60;32.50;;;;;;5036061;28;20485;-14
2022/04/18 10:11:07;;;;;;;10.32;5.32;;;20.80;32.20;;;;;;5036949;28;20045;-15
2022/04/18 10:13:36;;;;;;;7.63;4.90;;;21.00;31.90;;;;;;5036417;28;20037;-14
2022/04/18 10:16:04;;;;;;;7.47;4.22;;;21.10;31.90;;;;;;5036046;28;20029;-14
2022/04/18 10:18:33;;;;;;;8.20;4.40;;;21.10;31.80;;;;;;5035765;28;20025;-14
2022/04/18 10:21:15;;;;;;;8.68;4.95;;;20.90;31.90;;;;;;5017700;28;20045;-14
2022/04/18 10:24:18;;;;;;;10.65;4.55;;;21.10;31.40;;;;;;5036287;28;20378;-14
2022/04/18 10:27:02;;;;;;;8.25;4.90;;;21.50;30.90;;;;;;5035899;28;20021;-15
2022/04/18 10:29:37;;;;;;;13.45;4.53;;;21.60;30.70;;;;;;5036698;28;20065;-14
2022/04/18 10:32:07;;;;;;;9.05;4.88;;;21.70;31.20;;;;;;5035093;28;20148;-14
2022/04/18 10:34:35;;;;;;;8.63;5.15;;;21.70;30.70;;;;;;5035855;28;20037;-14
2022/04/18 10:37:03;;;;;;;8.48;4.88;;;21.50;31.40;;;;;;5036209;28;20041;-14
2022/04/18 10:39:37;;;;;;;9.00;4.55;;;21.50;31.30;;;;;;5035602;28;20033;-14
2022/04/18 10:42:27;;;;;;;7.10;4.45;;;21.60;30.70;;;;;;5035731;28;20404;-14
2022/04/18 10:45:07;;;;;;;6.88;4.35;;;21.70;30.30;;;;;;5036057;28;20524;-14
2022/04/18 10:48:01;;;;;;;8.70;4.45;;;21.90;30.90;;;;;;5035779;28;20029;-14
2022/04/18 10:50:29;;;;;;;7.47;4.57;;;22.50;29.60;;;;;;5035438;28;20104;-14
2022/04/18 10:53:10;;;;;;;9.45;5.10;;;22.80;30.30;;;;;;5035722;28;20025;-14
2022/04/18 10:55:39;;;;;;;9.68;4.75;;;23.40;29.80;;;;;;5035343;28;20033;-15
2022/04/18 10:58:13;;;;;;;8.55;5.20;;;23.70;29.30;;;;;;5035267;28;20036;-14
2022/04/18 11:00:51;;;;;;;9.90;4.95;;;23.90;28.00;;;;;;5035272;28;20045;-14
2022/04/18 11:03:38;;;;;;;7.45;4.55;;;23.70;28.50;;;;;;5035100;28;20037;-14
2022/04/18 11:06:36;;;;;;;7.32;4.90;;;23.40;29.40;;;;;;5035139;28;20045;-14
2022/04/18 11:09:08;;;;;;;6.28;4.70;;;23.20;28.60;;;;;;4994069;28;20042;-14
2022/04/18 11:11:41;;;;;;;8.38;5.07;;;23.10;30.00;;;;;;4994217;28;20045;-14
2022/04/18 11:14:21;;;;;;;7.82;4.47;;;23.10;30.10;;;;;;4993838;28;20426;-14
2022/04/18 11:16:54;;;;;;;9.07;5.10;;;23.20;30.40;;;;;;4993806;28;20498;-14
2022/04/18 11:19:26;;;;;;;9.73;4.95;;;23.80;28.60;;;;;;4993510;28;20045;-14
2022/04/18 11:21:55;;;;;;;9.05;5.00;;;24.00;28.80;;;;;;4993466;28;20479;-13
2022/04/18 11:24:56;;;;;;;7.60;4.50;;;24.40;28.70;;;;;;4993211;28;20041;-14
2022/04/18 11:27:29;;;;;;;8.63;4.47;;;24.80;28.10;;;;;;4993470;28;20118;-14
2022/04/18 11:30:12;;;;;;;8.73;4.88;;;25.20;28.30;;;;;;4993548;28;20038;-14
2022/04/18 11:32:41;;;;;;;9.27;5.03;;;25.30;28.00;;;;;;4993218;28;20065;-14
2022/04/18 11:35:09;;;;;;;7.57;5.00;;;25.10;27.50;;;;;;4993236;28;20034;-15
2022/04/18 11:37:43;;;;;;;6.95;4.45;;;24.90;27.60;;;;;;4993447;28;20022;-14
2022/04/18 11:40:10;;;;;;;;;;;24.90;27.90;;;;;;4993633;28;20483;-15
2022/04/18 11:42:38;;;;;;;6.43;4.15;;;25.10;27.60;;;;;;4992950;28;19912;-14
2022/04/18 11:45:10;;;;;;;8.45;4.40;;;25.50;28.30;;;;;;5002552;28;20049;-14
2022/04/18 11:47:44;;;;;;;7.35;4.43;;;26.00;27.40;;;;;;5034616;28;20025;-14
2022/04/18 11:50:11;;;;;;;6.75;4.20;;;26.30;27.20;;;;;;5034305;28;20473;-14
2022/04/18 11:52:39;;;;;;;7.28;3.90;;;26.40;26.80;;;;;;5034051;28;20072;-15
2022/04/18 11:55:14;;;;;;;7.90;4.47;;;26.60;26.20;;;;;;5034277;28;20029;-14
2022/04/18 11:57:50;;;;;;;9.20;5.15;;;26.70;25.50;;;;;;5034254;28;20036;-15
2022/04/18 12:08:39;;;;;;;6.93;3.80;;;26.40;26.60;;;;;;5034524;28;20096;-14
2022/04/18 12:11:05;;;;;;;7.78;4.38;;;26.50;26.40;;;;;;5033826;28;20044;-14
2022/04/18 12:13:31;;;;;;;8.07;4.25;;;26.70;26.00;;;;;;5033818;28;20037;-15
2022/04/18 12:16:00;;;;;;;7.47;4.30;;;26.40;26.10;;;;;;5033977;28;20037;-14
2022/04/18 12:18:26;;;;;;;9.68;4.55;;;26.00;26.40;;;;;;5033609;28;20052;-15
2022/04/18 12:20:52;;;;;;;5.70;3.78;;;25.50;26.80;;;;;;5033977;28;20178;-15
2022/04/18 12:23:24;;;;;;;7.03;4.20;;;25.30;27.30;;;;;;5033911;28;20025;-15
2022/04/18 12:25:54;;;;;;;6.53;4.05;;;25.20;27.40;;;;;;5033620;28;20037;-14
2022/04/18 12:28:23;;;;;;;7.55;3.92;;;25.30;27.40;;;;;;5033807;28;20017;-15
2022/04/18 12:30:50;;;;;;;9.15;4.00;;;25.40;26.50;;;;;;5033474;28;20052;-14
2022/04/18 12:33:20;;;;;;;5.60;3.85;;;25.50;27.30;;;;;;5033442;28;20032;-15
2022/04/18 12:35:51;;;;;;;7.30;4.05;;;25.90;26.10;;;;;;5033779;28;20100;-14
2022/04/18 12:38:20;;;;;;;6.55;4.32;;;26.10;26.20;;;;;;5033279;28;20072;-14
2022/04/18 12:40:54;;;;;;;7.63;4.00;;;25.90;25.70;;;;;;5033695;28;20026;-14
2022/04/18 12:43:25;;;;;;;7.68;4.40;;;25.70;26.10;;;;;;5032233;28;20104;-14
2022/04/18 12:46:04;;;;;;;12.63;4.28;;;25.80;25.90;;;;;;5033411;28;20485;-15
2022/04/18 12:48:33;;;;;;;7.40;4.20;;;25.90;26.20;;;;;;5033101;28;20441;-14
2022/04/18 12:51:01;;;;;;;7.47;4.28;;;26.20;26.20;;;;;;5033485;28;20091;-14
2022/04/18 12:53:47;;;;;;;5.72;4.22;;;26.30;25.00;;;;;;5033186;28;20417;-14
2022/04/18 12:56:22;;;;;;;5.25;3.88;;;26.40;24.80;;;;;;5032788;28;20025;-15
2022/04/18 12:58:49;;;;;;;6.22;4.10;;;26.50;25.40;;;;;;5033542;28;20030;-13
2022/04/18 13:01:28;;;;;;;9.93;4.50;;;26.70;25.40;;;;;;5033475;28;20024;-14
2022/04/18 13:03:56;;;;;;;6.90;4.00;;;26.50;25.60;;;;;;5033081;28;20040;-15
2022/04/18 13:06:27;;;;;;;5.97;3.80;;;26.30;25.60;;;;;;5032659;28;20049;-15
2022/04/18 13:09:05;;;;;;;7.53;4.03;;;26.30;25.60;;;;;;5033418;28;20481;-15
2022/04/18 13:11:43;;;;;;;6.35;4.00;;;26.20;25.70;;;;;;5033048;28;20052;-14
2022/04/18 13:14:13;;;;;;;6.78;4.13;;;26.00;25.90;;;;;;5033358;28;20037;-15
2022/04/18 13:16:42;;;;;;;6.55;3.80;;;25.90;26.00;;;;;;5033030;28;20025;-15
2022/04/18 13:19:14;;;;;;;8.23;3.67;;;25.90;25.60;;;;;;5032975;28;20021;-14
2022/04/18 13:21:42;;;;;;;6.30;3.60;;;25.80;25.60;;;;;;5032976;28;20400;-14